Greenford, United Kingdom
Current Conditions -  °F | °C
As of 7:50 AM on Thursday 18 Dec 2014 (Local Time) from EGWU Reporting Station
Drizzle Drizzle  
Wind Chill: 55°   Ceiling: 1200
Heat Index: 55°   Visibility: 6mi
Dew Point: 50°   Wind: 17mph
Humidity: 82%   Direction: 270°W
Pressure: 29.83"   Gusts: NA
Location:  51.54°N, 0.34°W
Report Text: EGWU 180750Z 27015KT 9999 -DZ BKN012 OVC015 13/10 Q1010 TEMPO FEW012
Loading
Personal Weather Stations






























Interactive Weather Map New forecast layout! Learn more

10-Day Weather Forecast

Advertisements
Track Severe Weather on mobile